createdAt,value
2019-05-16T00:00:04.758Z,0.00
2019-05-16T00:01:04.721Z,0.00
2019-05-16T00:02:04.698Z,0.00
2019-05-16T00:03:04.678Z,0.00
2019-05-16T00:04:04.658Z,0.00
2019-05-16T00:05:04.627Z,0.00
2019-05-16T00:06:04.602Z,0.00
2019-05-16T00:07:04.580Z,0.00
2019-05-16T00:08:04.564Z,0.00
2019-05-16T00:09:04.534Z,0.00
2019-05-16T00:10:04.513Z,0.00
2019-05-16T00:11:04.487Z,0.00
2019-05-16T00:12:04.463Z,0.00
2019-05-16T00:13:04.445Z,0.00
2019-05-16T00:14:04.419Z,0.00
2019-05-16T00:15:04.391Z,0.00
2019-05-16T00:16:04.345Z,0.00
2019-05-16T00:17:04.325Z,0.00
2019-05-16T00:18:04.321Z,0.00
2019-05-16T00:19:04.299Z,0.00
2019-05-16T00:20:04.280Z,0.00
2019-05-16T00:21:04.249Z,0.00
2019-05-16T00:22:04.222Z,0.00
2019-05-16T00:23:04.196Z,0.00
2019-05-16T00:24:04.179Z,0.00
2019-05-16T00:25:04.149Z,0.00
2019-05-16T00:26:04.125Z,0.00
2019-05-16T00:27:04.109Z,0.00
2019-05-16T00:28:04.089Z,0.00
2019-05-16T00:29:04.058Z,0.00
2019-05-16T00:30:04.036Z,0.00
2019-05-16T00:31:04.016Z,0.00
2019-05-16T00:32:03.990Z,0.00
2019-05-16T00:33:03.967Z,0.00
2019-05-16T00:34:03.930Z,0.00
2019-05-16T00:35:03.916Z,0.00
2019-05-16T00:36:06.131Z,0.00
2019-05-16T00:37:03.877Z,0.00
2019-05-16T00:38:03.855Z,0.00
2019-05-16T00:39:03.805Z,0.00
2019-05-16T00:40:03.828Z,0.00
2019-05-16T00:41:03.753Z,0.00
2019-05-16T00:42:03.750Z,0.00
2019-05-16T00:43:03.727Z,0.00
2019-05-16T00:44:03.709Z,0.00
2019-05-16T00:45:03.686Z,0.00
2019-05-16T00:46:03.661Z,0.00
2019-05-16T00:47:03.631Z,0.00
2019-05-16T00:48:03.612Z,0.00
2019-05-16T00:49:03.586Z,0.00
2019-05-16T00:50:03.565Z,0.00
2019-05-16T00:51:03.539Z,0.00
2019-05-16T00:52:03.520Z,0.00
2019-05-16T00:53:03.493Z,0.00
2019-05-16T00:54:03.476Z,0.00
2019-05-16T00:55:03.446Z,0.00
2019-05-16T00:56:03.424Z,0.00
2019-05-16T00:57:03.401Z,0.00
2019-05-16T00:58:03.377Z,0.00
2019-05-16T00:59:03.332Z,0.00
2019-05-16T01:00:03.331Z,0.00
2019-05-16T01:01:03.306Z,0.00
2019-05-16T01:02:03.285Z,0.00
2019-05-16T01:03:03.260Z,0.00
2019-05-16T01:04:03.237Z,0.00
2019-05-16T01:05:03.212Z,0.00
2019-05-16T01:06:15.453Z,0.00
2019-05-16T01:07:03.164Z,0.00
2019-05-16T01:08:03.139Z,0.00
2019-05-16T01:09:03.119Z,0.00
2019-05-16T01:10:03.097Z,0.00
2019-05-16T01:11:03.072Z,0.00
2019-05-16T01:12:03.053Z,0.00
2019-05-16T01:13:03.024Z,0.00
2019-05-16T01:14:03.001Z,0.00
2019-05-16T01:15:02.978Z,0.00
2019-05-16T01:16:02.958Z,0.00
2019-05-16T01:17:02.933Z,0.00
2019-05-16T01:18:02.907Z,0.00
2019-05-16T01:19:02.879Z,0.00
2019-05-16T01:20:38.461Z,0.00
2019-05-16T01:21:02.835Z,0.00
2019-05-16T01:22:02.797Z,0.00
2019-05-16T01:23:02.794Z,0.00
2019-05-16T01:24:02.773Z,0.00
2019-05-16T01:25:03.972Z,0.00
2019-05-16T01:26:02.726Z,0.00
2019-05-16T01:27:02.692Z,0.00
2019-05-16T01:28:02.668Z,0.00
2019-05-16T01:29:02.655Z,0.00
2019-05-16T01:30:02.628Z,0.00
2019-05-16T01:31:02.602Z,0.00
2019-05-16T01:32:02.588Z,0.00
2019-05-16T01:33:02.534Z,0.00
2019-05-16T01:34:02.511Z,0.00
2019-05-16T01:35:02.489Z,0.00
2019-05-16T01:36:02.492Z,0.00
2019-05-16T01:37:02.465Z,0.00
2019-05-16T01:38:02.422Z,0.00
2019-05-16T01:39:02.414Z,0.00
2019-05-16T01:40:02.397Z,0.00
2019-05-16T01:41:02.370Z,0.00
2019-05-16T01:42:02.325Z,0.00
2019-05-16T01:43:02.305Z,0.00
2019-05-16T01:44:02.280Z,0.00
2019-05-16T01:45:02.273Z,0.00
2019-05-16T01:46:02.249Z,0.00
2019-05-16T01:47:02.241Z,0.00
2019-05-16T01:48:02.204Z,0.00
2019-05-16T01:49:02.182Z,0.00
2019-05-16T01:50:02.161Z,0.00
2019-05-16T01:51:02.132Z,0.00
2019-05-16T01:52:02.119Z,0.00
2019-05-16T01:53:02.095Z,0.00
2019-05-16T01:54:02.063Z,0.00
2019-05-16T01:55:02.036Z,0.00
2019-05-16T01:56:02.016Z,0.00
2019-05-16T01:57:01.971Z,0.00
2019-05-16T01:58:01.970Z,0.00
2019-05-16T01:59:01.947Z,0.00
2019-05-16T02:00:01.918Z,0.00
2019-05-16T02:01:11.538Z,0.00
2019-05-16T02:02:01.881Z,0.00
2019-05-16T02:03:01.831Z,0.00
2019-05-16T02:04:01.825Z,0.00
2019-05-16T02:05:01.799Z,0.00
2019-05-16T02:06:01.777Z,0.00
2019-05-16T02:07:01.754Z,0.00
2019-05-16T02:08:01.730Z,0.00
2019-05-16T02:09:01.708Z,0.00
2019-05-16T02:10:01.718Z,0.00
2019-05-16T02:11:01.656Z,0.00
2019-05-16T02:12:01.630Z,0.00
2019-05-16T02:13:01.639Z,0.00
2019-05-16T02:14:01.591Z,0.00
2019-05-16T02:15:01.562Z,0.00
2019-05-16T02:16:01.533Z,0.00
2019-05-16T02:17:01.517Z,0.00
2019-05-16T02:18:01.493Z,0.00
2019-05-16T02:19:01.471Z,0.00
2019-05-16T02:20:01.440Z,0.00
2019-05-16T02:21:01.539Z,0.00
2019-05-16T02:22:01.393Z,0.00
2019-05-16T02:23:01.372Z,0.00
2019-05-16T02:24:02.140Z,0.00
2019-05-16T02:25:01.334Z,0.00
2019-05-16T02:26:01.308Z,0.00
2019-05-16T02:27:01.290Z,0.00
2019-05-16T02:28:01.235Z,0.00
2019-05-16T02:29:01.231Z,0.00
2019-05-16T02:30:01.231Z,0.00
2019-05-16T02:31:01.577Z,0.00
2019-05-16T02:32:02.161Z,0.00
2019-05-16T02:33:01.315Z,0.00
2019-05-16T02:34:04.523Z,0.00
2019-05-16T02:35:01.469Z,0.00
2019-05-16T02:36:01.755Z,0.00
2019-05-16T02:37:18.422Z,0.00
2019-05-16T02:38:01.347Z,0.00
2019-05-16T02:39:01.959Z,0.00
2019-05-16T02:40:01.517Z,0.00
2019-05-16T02:41:03.122Z,0.00
2019-05-16T02:42:01.234Z,0.00
2019-05-16T02:43:01.916Z,0.00
2019-05-16T02:44:01.305Z,0.00
2019-05-16T02:45:02.376Z,0.00
2019-05-16T02:46:01.392Z,0.00
2019-05-16T02:47:01.511Z,0.00
2019-05-16T02:48:01.442Z,0.00
2019-05-16T02:49:01.045Z,0.00
2019-05-16T02:50:01.325Z,0.00
2019-05-16T02:51:01.868Z,0.00
2019-05-16T02:52:01.369Z,0.00
2019-05-16T02:53:01.422Z,0.00
2019-05-16T02:54:01.333Z,0.00
2019-05-16T02:55:01.065Z,0.00
2019-05-16T02:56:01.509Z,0.00
2019-05-16T02:57:01.448Z,0.00
2019-05-16T02:58:01.142Z,0.00
2019-05-16T02:59:01.683Z,0.00
2019-05-16T03:00:01.637Z,0.00
2019-05-16T03:01:01.898Z,0.00
2019-05-16T03:02:01.009Z,0.00
2019-05-16T03:03:01.134Z,0.00
2019-05-16T03:04:01.777Z,0.00
2019-05-16T03:05:01.128Z,0.00
2019-05-16T03:06:01.298Z,0.00
2019-05-16T03:07:00.818Z,0.00
2019-05-16T03:08:01.348Z,0.00
2019-05-16T03:09:01.807Z,0.00
2019-05-16T03:10:01.638Z,0.00
2019-05-16T03:11:01.038Z,0.00
2019-05-16T03:12:01.234Z,0.00
2019-05-16T03:13:01.115Z,0.00
2019-05-16T03:14:00.715Z,0.00
2019-05-16T03:15:02.335Z,0.00
2019-05-16T03:16:00.745Z,0.00
2019-05-16T03:17:01.045Z,0.00
2019-05-16T03:18:03.866Z,0.00
2019-05-16T03:19:01.180Z,0.00
2019-05-16T03:20:01.486Z,0.00
2019-05-16T03:21:00.681Z,0.00
2019-05-16T03:22:01.147Z,0.00
2019-05-16T03:23:02.313Z,0.00
2019-05-16T03:24:00.827Z,0.00
2019-05-16T03:25:01.082Z,0.00
2019-05-16T03:26:00.970Z,0.00
2019-05-16T03:27:01.609Z,0.00
2019-05-16T03:28:01.924Z,0.00
2019-05-16T03:29:00.973Z,0.00
2019-05-16T03:30:01.748Z,0.00
2019-05-16T03:31:05.136Z,0.00
2019-05-16T03:32:03.199Z,0.00
2019-05-16T03:33:05.164Z,0.00
2019-05-16T03:34:06.945Z,0.00
2019-05-16T03:35:05.131Z,0.00
2019-05-16T03:36:04.620Z,0.00
2019-05-16T03:37:04.315Z,0.00
2019-05-16T03:38:03.952Z,0.00
2019-05-16T03:39:01.317Z,0.00
2019-05-16T03:40:00.566Z,0.00
2019-05-16T03:41:01.035Z,0.00
2019-05-16T03:42:01.028Z,0.00
2019-05-16T03:43:01.342Z,0.00
2019-05-16T03:44:01.325Z,0.00
2019-05-16T03:45:02.176Z,0.00
2019-05-16T03:46:02.567Z,0.00
2019-05-16T03:47:01.024Z,0.00
2019-05-16T03:48:02.797Z,0.00
2019-05-16T03:49:02.441Z,0.00
2019-05-16T03:50:00.570Z,0.00
2019-05-16T03:51:00.788Z,0.00
2019-05-16T03:52:01.590Z,0.00
2019-05-16T03:53:01.532Z,0.00
2019-05-16T03:54:02.621Z,0.00
2019-05-16T03:55:01.651Z,0.00
2019-05-16T03:56:01.874Z,0.00
2019-05-16T03:57:00.461Z,0.00
2019-05-16T03:58:01.229Z,0.00
2019-05-16T03:59:01.176Z,0.00
2019-05-16T04:00:00.648Z,0.00
2019-05-16T04:01:02.493Z,0.00
2019-05-16T04:02:01.471Z,0.00
2019-05-16T04:03:01.198Z,0.00
2019-05-16T04:04:01.587Z,0.00
2019-05-16T04:05:01.805Z,0.00
2019-05-16T04:06:01.134Z,0.00
2019-05-16T04:07:01.374Z,0.00
2019-05-16T04:08:11.263Z,0.00
2019-05-16T04:09:01.636Z,0.00
2019-05-16T04:10:01.909Z,0.00
2019-05-16T04:11:01.321Z,0.00
2019-05-16T04:12:01.808Z,0.00
2019-05-16T04:13:01.098Z,0.00
2019-05-16T04:14:01.258Z,0.00
2019-05-16T04:15:01.482Z,0.00
2019-05-16T04:16:01.388Z,0.00
2019-05-16T04:17:01.366Z,0.00
2019-05-16T04:18:01.312Z,0.00
2019-05-16T04:19:01.656Z,0.00
2019-05-16T04:20:01.518Z,0.00
2019-05-16T04:21:01.055Z,0.00
2019-05-16T04:22:01.348Z,0.00
2019-05-16T04:23:01.169Z,0.00
2019-05-16T04:24:01.275Z,0.00
2019-05-16T04:25:01.482Z,0.00
2019-05-16T04:26:00.737Z,0.00
2019-05-16T04:27:00.985Z,0.00
2019-05-16T04:28:00.852Z,0.00
2019-05-16T04:29:00.747Z,0.00
2019-05-16T04:30:01.544Z,0.00
2019-05-16T04:31:01.465Z,0.00
2019-05-16T04:32:01.173Z,0.00
2019-05-16T04:33:01.683Z,0.00
2019-05-16T04:34:00.945Z,0.00
2019-05-16T04:35:02.165Z,0.00
2019-05-16T04:36:00.885Z,0.00
2019-05-16T04:37:01.175Z,0.00
2019-05-16T04:38:01.613Z,0.00
2019-05-16T04:38:58.132Z,0.00
2019-05-16T04:40:00.913Z,0.00
2019-05-16T04:41:01.225Z,0.00
2019-05-16T04:42:01.323Z,0.00
2019-05-16T04:43:01.027Z,0.00
2019-05-16T04:44:01.452Z,0.00
2019-05-16T04:45:01.006Z,0.00
2019-05-16T04:46:01.052Z,0.00
2019-05-16T04:47:01.105Z,0.00
2019-05-16T04:48:00.448Z,0.00
2019-05-16T04:49:01.452Z,0.00
2019-05-16T04:50:01.103Z,0.00
2019-05-16T04:51:01.006Z,0.00
2019-05-16T04:52:00.611Z,0.00
2019-05-16T04:53:01.160Z,0.00
2019-05-16T04:53:57.756Z,0.00
2019-05-16T04:55:00.472Z,0.00
2019-05-16T04:55:57.792Z,0.00
2019-05-16T04:57:01.244Z,0.00
2019-05-16T04:57:57.677Z,0.00
2019-05-16T04:59:00.396Z,0.00
2019-05-16T04:59:57.627Z,0.00
2019-05-16T05:00:57.604Z,0.00
2019-05-16T05:01:57.583Z,0.00
2019-05-16T05:02:57.558Z,0.00
2019-05-16T05:04:08.736Z,0.00
2019-05-16T05:04:57.507Z,0.00
2019-05-16T05:05:57.493Z,0.00
2019-05-16T05:07:00.317Z,0.00
2019-05-16T05:07:57.433Z,0.00
2019-05-16T05:09:00.256Z,0.00
2019-05-16T05:10:00.269Z,0.00
2019-05-16T05:10:57.366Z,0.00
2019-05-16T05:12:01.306Z,0.00
2019-05-16T05:12:57.297Z,0.00
2019-05-16T05:13:57.281Z,0.00
2019-05-16T05:14:57.250Z,0.00
2019-05-16T05:15:57.247Z,0.00
2019-05-16T05:16:57.224Z,0.00
2019-05-16T05:17:57.201Z,0.00
2019-05-16T05:18:57.184Z,0.00
2019-05-16T05:19:57.150Z,0.00
2019-05-16T05:20:57.121Z,0.00
2019-05-16T05:21:57.108Z,0.00
2019-05-16T05:22:57.077Z,0.00
2019-05-16T05:23:57.052Z,0.00
2019-05-16T05:24:57.024Z,0.00
2019-05-16T05:25:57.005Z,0.00
2019-05-16T05:26:56.979Z,0.00
2019-05-16T05:27:56.956Z,0.00
2019-05-16T05:28:56.930Z,0.00
2019-05-16T05:29:56.906Z,0.00
2019-05-16T05:30:56.885Z,0.00
2019-05-16T05:31:56.871Z,0.00
2019-05-16T05:32:56.844Z,0.00
2019-05-16T05:33:56.796Z,0.00
2019-05-16T05:34:56.785Z,0.00
2019-05-16T05:35:56.768Z,0.00
2019-05-16T05:36:56.739Z,0.00
2019-05-16T05:37:56.722Z,0.00
2019-05-16T05:39:08.940Z,0.00
2019-05-16T05:39:56.671Z,0.00
2019-05-16T05:40:56.651Z,0.00
2019-05-16T05:41:56.623Z,0.00
2019-05-16T05:42:56.596Z,0.00
2019-05-16T05:43:56.574Z,0.00
2019-05-16T05:44:56.557Z,0.00
2019-05-16T05:45:56.527Z,0.00
2019-05-16T05:46:56.498Z,0.00
2019-05-16T05:47:56.478Z,0.00
2019-05-16T05:48:56.453Z,0.00
2019-05-16T05:49:56.428Z,0.00
2019-05-16T05:50:56.387Z,0.00
2019-05-16T05:51:56.389Z,0.00
2019-05-16T05:52:56.365Z,0.00
2019-05-16T05:53:56.331Z,0.00
2019-05-16T05:54:56.310Z,0.00
2019-05-16T05:55:56.269Z,0.00
2019-05-16T05:56:56.243Z,0.00
2019-05-16T05:57:56.224Z,0.00
2019-05-16T05:58:58.283Z,0.00
2019-05-16T05:59:56.174Z,0.00
2019-05-16T06:00:56.152Z,0.00
2019-05-16T06:01:56.158Z,0.00
2019-05-16T06:02:56.123Z,0.00
2019-05-16T06:03:56.103Z,0.00
2019-05-16T06:04:56.071Z,0.00
2019-05-16T06:05:56.047Z,0.00
2019-05-16T06:06:56.027Z,0.00
2019-05-16T06:07:56.005Z,0.00
2019-05-16T06:08:55.980Z,0.00
2019-05-16T06:09:56.727Z,0.00
2019-05-16T06:10:55.931Z,0.00
2019-05-16T06:11:55.902Z,0.00
2019-05-16T06:12:55.881Z,0.00
2019-05-16T06:13:55.853Z,0.00
2019-05-16T06:14:55.837Z,0.00
2019-05-16T06:15:55.818Z,0.00
2019-05-16T06:16:55.772Z,0.00
2019-05-16T06:17:55.743Z,0.00
2019-05-16T06:18:56.803Z,0.00
2019-05-16T06:19:55.712Z,0.00
2019-05-16T06:20:55.695Z,0.00
2019-05-16T06:21:55.666Z,0.00
2019-05-16T06:22:55.640Z,0.00
2019-05-16T06:23:55.612Z,0.00
2019-05-16T06:24:55.588Z,0.00
2019-05-16T06:25:55.568Z,0.00
2019-05-16T06:26:55.547Z,0.00
2019-05-16T06:27:55.523Z,0.00
2019-05-16T06:28:55.501Z,0.00
2019-05-16T06:29:57.371Z,0.00
2019-05-16T06:30:55.459Z,0.00
2019-05-16T06:31:55.431Z,0.00
2019-05-16T06:32:55.400Z,0.00
2019-05-16T06:33:55.382Z,0.00
2019-05-16T06:34:55.356Z,0.00
2019-05-16T06:35:55.336Z,0.00
2019-05-16T06:36:55.310Z,0.00
2019-05-16T06:37:55.292Z,0.00
2019-05-16T06:38:55.260Z,0.00
2019-05-16T06:39:55.237Z,0.00
2019-05-16T06:40:55.195Z,0.00
2019-05-16T06:41:55.204Z,0.00
2019-05-16T06:42:55.169Z,0.00
2019-05-16T06:43:55.145Z,0.00
2019-05-16T06:44:55.125Z,0.00
2019-05-16T06:45:55.095Z,0.00
2019-05-16T06:47:10.095Z,0.00
2019-05-16T06:47:55.049Z,0.00
2019-05-16T06:48:55.024Z,0.00
2019-05-16T06:49:55.002Z,0.00
2019-05-16T06:50:54.977Z,0.00
2019-05-16T06:51:54.989Z,0.00
2019-05-16T06:52:54.914Z,0.00
2019-05-16T06:53:54.910Z,0.00
2019-05-16T06:54:54.884Z,0.00
2019-05-16T06:55:54.836Z,0.00
2019-05-16T06:56:54.836Z,0.00
2019-05-16T06:57:57.245Z,0.00
2019-05-16T06:58:54.768Z,0.00
2019-05-16T06:59:54.762Z,0.00
2019-05-16T07:00:54.717Z,0.00
2019-05-16T07:01:54.694Z,0.00
2019-05-16T07:02:54.668Z,0.00
2019-05-16T07:03:54.680Z,0.00
2019-05-16T07:04:54.625Z,0.00
2019-05-16T07:05:54.597Z,0.00
2019-05-16T07:06:59.347Z,0.00
2019-05-16T07:07:54.566Z,0.00
2019-05-16T07:08:54.547Z,0.00
2019-05-16T07:10:00.162Z,0.00
2019-05-16T07:10:54.497Z,0.00
2019-05-16T07:11:54.479Z,0.00
2019-05-16T07:12:54.494Z,0.00
2019-05-16T07:13:54.432Z,0.00
2019-05-16T07:14:54.410Z,0.00
2019-05-16T07:15:54.379Z,0.00
2019-05-16T07:16:54.365Z,0.00
2019-05-16T07:17:54.333Z,0.00
2019-05-16T07:18:54.308Z,0.00
2019-05-16T07:19:54.283Z,0.00
2019-05-16T07:20:54.265Z,0.00
2019-05-16T07:21:54.247Z,0.00
2019-05-16T07:22:54.217Z,0.00
2019-05-16T07:23:54.193Z,0.00
2019-05-16T07:24:54.146Z,0.00
2019-05-16T07:25:54.129Z,0.00
2019-05-16T07:26:54.101Z,0.00
2019-05-16T07:27:54.098Z,0.00
2019-05-16T07:28:54.070Z,0.00
2019-05-16T07:29:54.047Z,0.00
2019-05-16T07:30:54.009Z,0.00
2019-05-16T07:31:54.012Z,0.00
2019-05-16T07:32:53.975Z,0.00
2019-05-16T07:33:53.964Z,0.00
2019-05-16T07:34:53.915Z,0.00
2019-05-16T07:35:53.909Z,0.00
2019-05-16T07:36:53.892Z,0.00
2019-05-16T07:37:53.849Z,0.00
2019-05-16T07:38:53.837Z,0.00
2019-05-16T07:39:53.819Z,0.00
2019-05-16T07:40:53.799Z,0.00
2019-05-16T07:41:53.768Z,0.00
2019-05-16T07:42:53.750Z,0.00
2019-05-16T07:43:53.720Z,0.00
2019-05-16T07:44:53.696Z,0.00
2019-05-16T07:45:53.671Z,0.00
2019-05-16T07:46:53.655Z,0.00
2019-05-16T07:47:53.652Z,0.00
2019-05-16T07:48:53.601Z,0.00
2019-05-16T07:49:53.578Z,0.00
2019-05-16T07:50:53.533Z,0.00
2019-05-16T07:51:53.515Z,0.00
2019-05-16T07:52:53.488Z,0.00
2019-05-16T07:53:53.467Z,0.00
2019-05-16T07:54:53.480Z,0.00
2019-05-16T07:55:53.418Z,0.00
2019-05-16T07:56:59.792Z,0.00
2019-05-16T07:57:53.402Z,0.00
2019-05-16T07:58:53.375Z,0.00
2019-05-16T07:59:53.338Z,0.00
2019-05-16T08:01:02.704Z,0.00
2019-05-16T08:01:54.167Z,0.00
2019-05-16T08:02:53.268Z,0.00
2019-05-16T08:03:53.248Z,0.00
2019-05-16T08:04:53.228Z,0.00
2019-05-16T08:05:53.202Z,0.00
2019-05-16T08:06:53.181Z,0.00
2019-05-16T08:07:53.153Z,0.00
2019-05-16T08:08:53.133Z,0.00
2019-05-16T08:09:53.104Z,0.00
2019-05-16T08:10:53.082Z,0.00
2019-05-16T08:11:53.058Z,0.00
2019-05-16T08:12:53.036Z,0.00
2019-05-16T08:13:52.989Z,0.00
2019-05-16T08:14:52.987Z,0.00
2019-05-16T08:15:52.965Z,0.00
2019-05-16T08:16:52.949Z,0.00
2019-05-16T08:17:52.918Z,0.00
2019-05-16T08:18:52.899Z,0.00
2019-05-16T08:19:52.864Z,0.00
2019-05-16T08:20:52.980Z,0.00
2019-05-16T08:21:52.829Z,0.00
2019-05-16T08:22:52.805Z,0.00
2019-05-16T08:23:52.780Z,0.00
2019-05-16T08:24:52.751Z,0.00
2019-05-16T08:25:52.729Z,0.00
2019-05-16T08:26:52.708Z,0.00
2019-05-16T08:27:52.680Z,0.00
2019-05-16T08:28:52.668Z,0.00
2019-05-16T08:29:52.638Z,0.00
2019-05-16T08:30:53.256Z,0.00
2019-05-16T08:31:53.071Z,0.00
2019-05-16T08:32:53.031Z,0.00
2019-05-16T08:33:54.920Z,0.00
2019-05-16T08:34:52.521Z,0.00
2019-05-16T08:35:52.506Z,0.00
2019-05-16T08:36:52.475Z,0.00
2019-05-16T08:37:52.453Z,0.00
2019-05-16T08:38:52.424Z,0.00
2019-05-16T08:39:52.386Z,0.00
2019-05-16T08:41:08.156Z,0.00
2019-05-16T08:41:52.350Z,0.00
2019-05-16T08:42:52.328Z,0.00
2019-05-16T08:44:52.289Z,0.00
2019-05-16T08:45:52.279Z,0.00
2019-05-16T08:46:56.960Z,0.00
2019-05-16T08:48:54.088Z,0.00
2019-05-16T08:49:52.465Z,0.00
2019-05-16T08:51:53.134Z,0.00
2019-05-16T08:52:53.114Z,0.00
2019-05-16T08:53:52.063Z,0.00
2019-05-16T08:54:52.088Z,0.00
2019-05-16T08:55:52.008Z,0.00
2019-05-16T08:56:52.011Z,0.00
2019-05-16T08:57:52.833Z,0.00
2019-05-16T08:58:54.117Z,0.00
2019-05-16T08:59:52.560Z,0.00
2019-05-16T09:00:55.437Z,0.00
2019-05-16T09:01:57.592Z,0.00
2019-05-16T09:02:52.624Z,0.00
2019-05-16T09:03:52.386Z,0.00
2019-05-16T09:05:53.512Z,0.00
2019-05-16T09:06:52.677Z,0.00
2019-05-16T09:08:00.398Z,0.00
2019-05-16T09:08:51.713Z,0.00
2019-05-16T09:09:52.317Z,4.00
2019-05-16T09:10:11.187Z,0.00
2019-05-16T09:10:31.603Z,0.00
2019-05-16T09:10:41.348Z,0.00
2019-05-16T09:11:01.840Z,4.00
2019-05-16T09:11:51.642Z,4.00
2019-05-16T09:12:51.625Z,8.00
2019-05-16T09:13:51.615Z,4.00
2019-05-16T09:14:51.581Z,8.00
2019-05-16T09:15:51.555Z,8.00
2019-05-16T09:16:51.527Z,12.00
2019-05-16T09:17:51.505Z,20.00
2019-05-16T09:18:39.097Z,0.00
2019-05-16T09:18:51.643Z,20.00
2019-05-16T09:19:51.463Z,28.00
2019-05-16T09:20:51.433Z,36.00
2019-05-16T09:21:51.410Z,44.00
2019-05-16T09:22:51.386Z,36.00
2019-05-16T09:23:51.396Z,48.00
2019-05-16T09:24:51.341Z,60.00
2019-05-16T09:25:51.315Z,68.00
2019-05-16T09:26:51.290Z,84.00
2019-05-16T09:27:51.277Z,104.00
2019-05-16T09:28:51.239Z,136.00
2019-05-16T09:29:51.222Z,176.00
2019-05-16T09:30:51.200Z,216.00
2019-05-16T09:32:07.974Z,244.00
2019-05-16T09:32:51.149Z,260.00
2019-05-16T09:33:51.126Z,276.00
2019-05-16T09:34:51.083Z,296.00
2019-05-16T09:35:51.127Z,296.00
2019-05-16T09:36:51.055Z,332.00
2019-05-16T09:37:51.055Z,284.00
2019-05-16T09:38:50.990Z,308.00
2019-05-16T09:39:50.968Z,332.00
2019-05-16T09:40:50.963Z,352.00
2019-05-16T09:42:00.158Z,380.00
2019-05-16T09:42:50.915Z,420.00
2019-05-16T09:43:50.878Z,464.00
2019-05-16T09:44:50.862Z,500.00
2019-05-16T09:45:50.846Z,532.00
2019-05-16T09:46:50.828Z,448.00
2019-05-16T09:47:50.798Z,544.00
2019-05-16T09:49:11.620Z,564.00
2019-05-16T09:49:50.743Z,1456.00
2019-05-16T09:50:50.726Z,1608.00
2019-05-16T09:51:50.697Z,1760.00
2019-05-16T09:52:50.679Z,1892.00
2019-05-16T09:53:50.664Z,2044.00
2019-05-16T09:54:50.633Z,2208.00
2019-05-16T09:55:50.609Z,2344.00
2019-05-16T09:56:50.578Z,2460.00
2019-05-16T09:57:50.559Z,2548.00
2019-05-16T09:58:50.536Z,2732.00
2019-05-16T09:59:50.494Z,2972.00
2019-05-16T10:00:50.490Z,3236.00
2019-05-16T10:01:50.467Z,3504.00
2019-05-16T10:02:50.441Z,3776.00
2019-05-16T10:03:50.402Z,4048.00
2019-05-16T10:04:50.391Z,4396.00
2019-05-16T10:05:50.372Z,4668.00
2019-05-16T10:06:50.353Z,4904.00
2019-05-16T10:07:50.321Z,5208.00
2019-05-16T10:08:50.295Z,5388.00
2019-05-16T10:09:50.503Z,5516.00
2019-05-16T10:10:50.252Z,5692.00
2019-05-16T10:12:05.490Z,5640.00
2019-05-16T10:12:50.210Z,5452.00
2019-05-16T10:13:50.283Z,5116.00
2019-05-16T10:14:50.162Z,4900.00
2019-05-16T10:15:50.137Z,5616.00
2019-05-16T10:16:50.121Z,6188.00
2019-05-16T10:17:50.085Z,6100.00
2019-05-16T10:18:50.059Z,5088.00
2019-05-16T10:19:50.036Z,4604.00
2019-05-16T10:20:49.998Z,4268.00
2019-05-16T10:21:49.993Z,3888.00
2019-05-16T10:22:50.578Z,3868.00
2019-05-16T10:23:49.955Z,5508.00
2019-05-16T10:24:49.922Z,4844.00
2019-05-16T10:25:49.876Z,4540.00
2019-05-16T10:26:53.833Z,5276.00
2019-05-16T10:27:49.859Z,6956.00
2019-05-16T10:28:49.829Z,7376.00
2019-05-16T10:29:49.804Z,7796.00
2019-05-16T10:30:50.328Z,7516.00
2019-05-16T10:31:53.243Z,5892.00
2019-05-16T10:32:49.735Z,6100.00
2019-05-16T10:33:49.712Z,9264.00
2019-05-16T10:34:49.689Z,12388.00
2019-05-16T10:35:49.668Z,14788.00
2019-05-16T10:36:49.626Z,14352.00
2019-05-16T10:37:49.621Z,12072.00
2019-05-16T10:38:49.600Z,10632.00
2019-05-16T10:39:49.553Z,9272.00
2019-05-16T10:40:49.546Z,8504.00
2019-05-16T10:41:49.524Z,9240.00
2019-05-16T10:42:49.521Z,10196.00
2019-05-16T10:43:49.465Z,9072.00
2019-05-16T10:45:22.649Z,10024.00
2019-05-16T10:45:49.417Z,10200.00
2019-05-16T10:46:49.416Z,7008.00
2019-05-16T10:47:49.372Z,5740.00
2019-05-16T10:48:49.348Z,17120.00
2019-05-16T10:49:49.349Z,8420.00
2019-05-16T10:50:49.335Z,7492.00
2019-05-16T10:51:49.346Z,8272.00
2019-05-16T10:53:13.295Z,11456.00
2019-05-16T10:54:05.758Z,7020.00
2019-05-16T10:54:58.037Z,8804.00
2019-05-16T10:55:49.209Z,11044.00
2019-05-16T10:56:49.250Z,9364.00
2019-05-16T10:57:49.262Z,11936.00
2019-05-16T10:59:21.515Z,10464.00
2019-05-16T11:00:05.451Z,10292.00
2019-05-16T11:01:11.154Z,11496.00
2019-05-16T11:01:49.059Z,9476.00
2019-05-16T11:02:49.112Z,7864.00
2019-05-16T11:03:49.382Z,6740.00
2019-05-16T11:05:00.226Z,7516.00
2019-05-16T11:06:02.886Z,7808.00
2019-05-16T11:06:48.968Z,6740.00
2019-05-16T11:07:52.910Z,7452.00
2019-05-16T11:08:48.929Z,8280.00
2019-05-16T11:09:57.873Z,7760.00
2019-05-16T11:10:48.885Z,8168.00
2019-05-16T11:11:48.857Z,6984.00
2019-05-16T11:12:54.169Z,6964.00
2019-05-16T11:13:51.073Z,6244.00
2019-05-16T11:14:48.790Z,5596.00
2019-05-16T11:15:48.769Z,5908.00
2019-05-16T11:16:48.754Z,5684.00
2019-05-16T11:17:48.724Z,6104.00
2019-05-16T11:18:48.703Z,6740.00
2019-05-16T11:19:48.679Z,6800.00
2019-05-16T11:20:49.475Z,5508.00
2019-05-16T11:21:48.628Z,6232.00
2019-05-16T11:22:48.611Z,5996.00
2019-05-16T11:23:48.592Z,5456.00
2019-05-16T11:24:48.549Z,4780.00
2019-05-16T11:25:48.538Z,4956.00
2019-05-16T11:26:48.520Z,5132.00
2019-05-16T11:27:48.482Z,4156.00
2019-05-16T11:28:49.306Z,4336.00
2019-05-16T11:29:48.457Z,4496.00
2019-05-16T11:30:49.911Z,3916.00
2019-05-16T11:31:48.773Z,4008.00
2019-05-16T11:32:48.389Z,4304.00
2019-05-16T11:33:48.368Z,3704.00
2019-05-16T11:34:48.346Z,3948.00
2019-05-16T11:35:48.342Z,4252.00
2019-05-16T11:36:48.282Z,4684.00
2019-05-16T11:37:48.259Z,4224.00
2019-05-16T11:38:48.257Z,4296.00
2019-05-16T11:39:48.235Z,5400.00
2019-05-16T11:40:48.209Z,7252.00
2019-05-16T11:41:48.185Z,8112.00
2019-05-16T11:43:05.151Z,8220.00
2019-05-16T11:43:48.138Z,8340.00
2019-05-16T11:44:48.115Z,8472.00
2019-05-16T11:45:48.093Z,8752.00
2019-05-16T11:46:49.200Z,8188.00
2019-05-16T11:47:48.058Z,7968.00
2019-05-16T11:48:48.984Z,8296.00
2019-05-16T11:49:48.008Z,9136.00
2019-05-16T11:50:48.285Z,9472.00
2019-05-16T11:51:47.962Z,11788.00
2019-05-16T11:52:48.016Z,8756.00
2019-05-16T11:53:47.920Z,22912.00
2019-05-16T11:54:47.901Z,23424.00
2019-05-16T11:55:55.446Z,24864.00
2019-05-16T11:56:47.852Z,25824.00
2019-05-16T11:57:47.856Z,33024.00
2019-05-16T11:58:47.804Z,36928.00
2019-05-16T11:59:47.788Z,33344.00
2019-05-16T12:00:48.318Z,37024.00
2019-05-16T12:01:47.794Z,42304.00
2019-05-16T12:02:48.047Z,29568.00
2019-05-16T12:03:47.709Z,24320.00
2019-05-16T12:04:47.682Z,18976.00
2019-05-16T12:05:48.504Z,15744.00
2019-05-16T12:06:47.649Z,14916.00
2019-05-16T12:07:48.681Z,14708.00
2019-05-16T12:08:47.609Z,13388.00
2019-05-16T12:09:54.573Z,12780.00
2019-05-16T12:10:47.572Z,15696.00
2019-05-16T12:11:47.556Z,19296.00
2019-05-16T12:12:47.523Z,22016.00
2019-05-16T12:13:47.761Z,26944.00
2019-05-16T12:14:47.465Z,26752.00
2019-05-16T12:15:47.623Z,36800.00
2019-05-16T12:16:47.501Z,30464.00
2019-05-16T12:18:00.337Z,26752.00
2019-05-16T12:18:47.379Z,25152.00
2019-05-16T12:19:49.051Z,23712.00
2019-05-16T12:20:47.375Z,23648.00
2019-05-16T12:21:47.334Z,21536.00
2019-05-16T12:22:47.327Z,22848.00
2019-05-16T12:24:31.551Z,26208.00
2019-05-16T12:24:47.713Z,28992.00
2019-05-16T12:25:47.700Z,29344.00
2019-05-16T12:26:48.016Z,25344.00
2019-05-16T12:27:48.102Z,25312.00
2019-05-16T12:28:47.205Z,27136.00
2019-05-16T12:29:52.569Z,25632.00
2019-05-16T12:30:47.398Z,24288.00
2019-05-16T12:31:57.865Z,24992.00
2019-05-16T12:32:47.211Z,25856.00
2019-05-16T12:33:47.828Z,24256.00
2019-05-16T12:34:47.088Z,22784.00
2019-05-16T12:35:47.591Z,23072.00
2019-05-16T12:36:47.354Z,24064.00
2019-05-16T12:37:47.934Z,26880.00
2019-05-16T12:38:46.998Z,27808.00
2019-05-16T12:39:47.192Z,22944.00
2019-05-16T12:40:47.982Z,20864.00
2019-05-16T12:41:49.257Z,21376.00
2019-05-16T12:42:47.302Z,22176.00
2019-05-16T12:43:53.139Z,24672.00
2019-05-16T12:44:46.992Z,26400.00
2019-05-16T12:45:47.454Z,28672.00
2019-05-16T12:46:47.412Z,28928.00
2019-05-16T12:47:47.410Z,32544.00
2019-05-16T12:48:47.397Z,53504.00
2019-05-16T12:49:47.268Z,40224.00
2019-05-16T12:50:48.101Z,64480.00
2019-05-16T12:51:46.755Z,67392.00
2019-05-16T12:52:47.380Z,71040.00
2019-05-16T12:53:47.701Z,57248.00
2019-05-16T12:54:47.560Z,57760.00